sensor_id;sensor_type;location;lat;lon;timestamp;P1;durP1;ratioP1;P2;durP2;ratioP2
68690;SDS011;55675;49.588;8.640;2022-11-20T00:01:19;15.80;;;10.60;;
68690;SDS011;55675;49.588;8.640;2022-11-20T00:03:50;14.60;;;9.27;;
68690;SDS011;55675;49.588;8.640;2022-11-20T00:06:18;12.97;;;8.67;;
68690;SDS011;55675;49.588;8.640;2022-11-20T00:08:44;21.87;;;11.70;;
68690;SDS011;55675;49.588;8.640;2022-11-20T00:11:14;17.77;;;10.73;;
68690;SDS011;55675;49.588;8.640;2022-11-20T00:13:41;15.47;;;10.17;;
68690;SDS011;55675;49.588;8.640;2022-11-20T00:16:11;15.00;;;8.90;;
68690;SDS011;55675;49.588;8.640;2022-11-20T00:18:38;15.17;;;9.60;;
68690;SDS011;55675;49.588;8.640;2022-11-20T00:21:05;23.33;;;12.83;;
68690;SDS011;55675;49.588;8.640;2022-11-20T00:23:33;21.10;;;12.00;;
68690;SDS011;55675;49.588;8.640;2022-11-20T00:26:05;17.90;;;10.57;;
68690;SDS011;55675;49.588;8.640;2022-11-20T00:28:32;14.43;;;8.93;;
68690;SDS011;55675;49.588;8.640;2022-11-20T00:31:02;12.93;;;8.70;;
68690;SDS011;55675;49.588;8.640;2022-11-20T00:33:29;13.10;;;8.77;;
68690;SDS011;55675;49.588;8.640;2022-11-20T00:35:58;11.83;;;7.70;;
68690;SDS011;55675;49.588;8.640;2022-11-20T00:38:29;11.23;;;7.80;;
68690;SDS011;55675;49.588;8.640;2022-11-20T00:40:59;12.33;;;8.07;;
68690;SDS011;55675;49.588;8.640;2022-11-20T00:43:26;12.60;;;7.67;;
68690;SDS011;55675;49.588;8.640;2022-11-20T00:45:56;11.57;;;7.97;;
68690;SDS011;55675;49.588;8.640;2022-11-20T00:48:28;9.80;;;7.13;;
68690;SDS011;55675;49.588;8.640;2022-11-20T00:50:54;11.80;;;7.77;;
68690;SDS011;55675;49.588;8.640;2022-11-20T00:53:20;18.80;;;10.67;;
68690;SDS011;55675;49.588;8.640;2022-11-20T00:55:56;14.17;;;8.83;;
68690;SDS011;55675;49.588;8.640;2022-11-20T00:58:23;13.20;;;8.43;;
68690;SDS011;55675;49.588;8.640;2022-11-20T01:00:50;12.43;;;8.20;;
68690;SDS011;55675;49.588;8.640;2022-11-20T01:03:16;13.83;;;8.47;;
68690;SDS011;55675;49.588;8.640;2022-11-20T01:05:42;12.77;;;8.93;;
68690;SDS011;55675;49.588;8.640;2022-11-20T01:08:08;13.13;;;8.47;;
68690;SDS011;55675;49.588;8.640;2022-11-20T01:10:33;13.00;;;8.53;;
68690;SDS011;55675;49.588;8.640;2022-11-20T01:12:59;13.97;;;8.70;;
68690;SDS011;55675;49.588;8.640;2022-11-20T01:15:43;11.43;;;7.67;;
68690;SDS011;55675;49.588;8.640;2022-11-20T01:18:09;12.50;;;8.53;;
68690;SDS011;55675;49.588;8.640;2022-11-20T01:20:34;12.37;;;7.90;;
68690;SDS011;55675;49.588;8.640;2022-11-20T01:23:01;11.13;;;8.30;;
68690;SDS011;55675;49.588;8.640;2022-11-20T01:25:27;12.90;;;8.20;;
68690;SDS011;55675;49.588;8.640;2022-11-20T01:27:53;13.23;;;8.47;;
68690;SDS011;55675;49.588;8.640;2022-11-20T01:30:19;14.60;;;8.83;;
68690;SDS011;55675;49.588;8.640;2022-11-20T01:32:44;13.40;;;8.60;;
68690;SDS011;55675;49.588;8.640;2022-11-20T01:35:10;16.03;;;9.43;;
68690;SDS011;55675;49.588;8.640;2022-11-20T01:37:35;12.17;;;7.70;;
68690;SDS011;55675;49.588;8.640;2022-11-20T01:40:01;12.33;;;8.03;;
68690;SDS011;55675;49.588;8.640;2022-11-20T01:42:27;11.97;;;7.67;;
68690;SDS011;55675;49.588;8.640;2022-11-20T01:48:17;13.90;;;8.33;;
68690;SDS011;55675;49.588;8.640;2022-11-20T01:50:46;11.27;;;7.90;;
68690;SDS011;55675;49.588;8.640;2022-11-20T01:53:12;10.43;;;7.40;;
68690;SDS011;55675;49.588;8.640;2022-11-20T01:55:43;8.30;;;6.37;;
68690;SDS011;55675;49.588;8.640;2022-11-20T01:58:12;8.47;;;6.27;;
68690;SDS011;55675;49.588;8.640;2022-11-20T02:00:38;10.13;;;6.63;;
68690;SDS011;55675;49.588;8.640;2022-11-20T02:03:09;10.87;;;7.30;;
68690;SDS011;55675;49.588;8.640;2022-11-20T02:05:49;10.20;;;6.60;;
68690;SDS011;55675;49.588;8.640;2022-11-20T02:08:27;10.83;;;6.77;;
68690;SDS011;55675;49.588;8.640;2022-11-20T02:10:53;10.17;;;6.40;;
68690;SDS011;55675;49.588;8.640;2022-11-20T02:13:18;9.13;;;6.40;;
68690;SDS011;55675;49.588;8.640;2022-11-20T02:16:03;11.57;;;8.23;;
68690;SDS011;55675;49.588;8.640;2022-11-20T02:18:29;30.03;;;18.30;;
68690;SDS011;55675;49.588;8.640;2022-11-20T02:21:00;10.00;;;7.23;;
68690;SDS011;55675;49.588;8.640;2022-11-20T02:23:59;9.83;;;6.47;;
68690;SDS011;55675;49.588;8.640;2022-11-20T02:26:26;8.73;;;6.70;;
68690;SDS011;55675;49.588;8.640;2022-11-20T02:28:54;9.73;;;6.30;;
68690;SDS011;55675;49.588;8.640;2022-11-20T02:31:20;8.87;;;6.37;;
68690;SDS011;55675;49.588;8.640;2022-11-20T02:33:46;9.53;;;6.80;;
68690;SDS011;55675;49.588;8.640;2022-11-20T02:36:11;9.20;;;6.60;;
68690;SDS011;55675;49.588;8.640;2022-11-20T02:38:40;10.93;;;6.67;;
68690;SDS011;55675;49.588;8.640;2022-11-20T02:41:06;10.50;;;7.47;;
68690;SDS011;55675;49.588;8.640;2022-11-20T02:43:32;9.90;;;7.10;;
68690;SDS011;55675;49.588;8.640;2022-11-20T02:45:57;10.30;;;7.93;;
68690;SDS011;55675;49.588;8.640;2022-11-20T02:48:23;10.90;;;7.00;;
68690;SDS011;55675;49.588;8.640;2022-11-20T02:50:48;11.77;;;7.60;;
68690;SDS011;55675;49.588;8.640;2022-11-20T02:53:14;10.57;;;7.00;;
68690;SDS011;55675;49.588;8.640;2022-11-20T02:55:39;12.43;;;7.80;;
68690;SDS011;55675;49.588;8.640;2022-11-20T02:58:05;11.37;;;7.67;;
68690;SDS011;55675;49.588;8.640;2022-11-20T03:00:30;12.77;;;8.00;;
68690;SDS011;55675;49.588;8.640;2022-11-20T03:02:56;9.93;;;6.77;;
68690;SDS011;55675;49.588;8.640;2022-11-20T03:05:22;11.10;;;7.67;;
68690;SDS011;55675;49.588;8.640;2022-11-20T03:07:48;13.40;;;8.27;;
68690;SDS011;55675;49.588;8.640;2022-11-20T03:10:13;12.90;;;8.57;;
68690;SDS011;55675;49.588;8.640;2022-11-20T03:12:39;12.33;;;8.03;;
68690;SDS011;55675;49.588;8.640;2022-11-20T03:15:04;14.10;;;8.13;;
68690;SDS011;55675;49.588;8.640;2022-11-20T03:17:30;11.70;;;7.50;;
68690;SDS011;55675;49.588;8.640;2022-11-20T03:19:56;12.27;;;8.37;;
68690;SDS011;55675;49.588;8.640;2022-11-20T03:22:21;13.03;;;8.03;;
68690;SDS011;55675;49.588;8.640;2022-11-20T03:24:47;11.77;;;8.10;;
68690;SDS011;55675;49.588;8.640;2022-11-20T03:27:12;12.47;;;8.60;;
68690;SDS011;55675;49.588;8.640;2022-11-20T03:29:38;14.07;;;8.53;;
68690;SDS011;55675;49.588;8.640;2022-11-20T03:32:04;11.57;;;8.00;;
68690;SDS011;55675;49.588;8.640;2022-11-20T03:34:29;11.37;;;8.13;;
68690;SDS011;55675;49.588;8.640;2022-11-20T03:36:55;11.97;;;7.80;;
68690;SDS011;55675;49.588;8.640;2022-11-20T03:39:20;11.60;;;7.40;;
68690;SDS011;55675;49.588;8.640;2022-11-20T03:41:46;11.37;;;8.03;;
68690;SDS011;55675;49.588;8.640;2022-11-20T03:44:11;11.07;;;8.10;;
68690;SDS011;55675;49.588;8.640;2022-11-20T03:46:37;13.43;;;8.03;;
68690;SDS011;55675;49.588;8.640;2022-11-20T03:49:03;11.80;;;8.07;;
68690;SDS011;55675;49.588;8.640;2022-11-20T03:51:30;11.53;;;7.77;;
68690;SDS011;55675;49.588;8.640;2022-11-20T03:53:58;12.47;;;8.20;;
68690;SDS011;55675;49.588;8.640;2022-11-20T03:56:26;11.33;;;7.67;;
68690;SDS011;55675;49.588;8.640;2022-11-20T03:58:53;13.77;;;8.90;;
68690;SDS011;55675;49.588;8.640;2022-11-20T04:01:20;11.10;;;7.97;;
68690;SDS011;55675;49.588;8.640;2022-11-20T04:03:47;12.93;;;8.40;;
68690;SDS011;55675;49.588;8.640;2022-11-20T04:06:17;11.00;;;7.93;;
68690;SDS011;55675;49.588;8.640;2022-11-20T04:08:48;12.50;;;8.00;;
68690;SDS011;55675;49.588;8.640;2022-11-20T04:11:14;11.57;;;8.17;;
68690;SDS011;55675;49.588;8.640;2022-11-20T04:13:46;14.57;;;8.70;;
68690;SDS011;55675;49.588;8.640;2022-11-20T04:16:13;13.97;;;8.43;;
68690;SDS011;55675;49.588;8.640;2022-11-20T04:18:39;12.33;;;8.10;;
68690;SDS011;55675;49.588;8.640;2022-11-20T04:21:04;12.87;;;8.03;;
68690;SDS011;55675;49.588;8.640;2022-11-20T04:23:30;12.27;;;8.07;;
68690;SDS011;55675;49.588;8.640;2022-11-20T04:26:10;11.40;;;7.70;;
68690;SDS011;55675;49.588;8.640;2022-11-20T04:28:36;11.53;;;8.23;;
68690;SDS011;55675;49.588;8.640;2022-11-20T04:31:07;11.17;;;7.97;;
68690;SDS011;55675;49.588;8.640;2022-11-20T04:33:44;11.23;;;7.83;;
68690;SDS011;55675;49.588;8.640;2022-11-20T04:36:11;12.30;;;8.03;;
68690;SDS011;55675;49.588;8.640;2022-11-20T04:38:38;13.77;;;8.53;;
68690;SDS011;55675;49.588;8.640;2022-11-20T04:41:05;10.87;;;7.40;;
68690;SDS011;55675;49.588;8.640;2022-11-20T04:43:31;11.60;;;8.03;;
68690;SDS011;55675;49.588;8.640;2022-11-20T04:45:57;14.90;;;8.17;;
68690;SDS011;55675;49.588;8.640;2022-11-20T04:48:25;13.20;;;8.17;;
68690;SDS011;55675;49.588;8.640;2022-11-20T04:50:51;11.07;;;6.70;;
68690;SDS011;55675;49.588;8.640;2022-11-20T04:53:17;11.97;;;7.33;;
68690;SDS011;55675;49.588;8.640;2022-11-20T04:55:43;13.27;;;7.83;;
68690;SDS011;55675;49.588;8.640;2022-11-20T04:58:09;12.40;;;7.70;;
68690;SDS011;55675;49.588;8.640;2022-11-20T05:00:35;11.97;;;7.83;;
68690;SDS011;55675;49.588;8.640;2022-11-20T05:03:00;11.57;;;7.10;;
68690;SDS011;55675;49.588;8.640;2022-11-20T05:05:26;12.37;;;8.00;;
68690;SDS011;55675;49.588;8.640;2022-11-20T05:07:51;11.57;;;7.87;;
68690;SDS011;55675;49.588;8.640;2022-11-20T05:10:17;12.97;;;8.03;;
68690;SDS011;55675;49.588;8.640;2022-11-20T05:12:42;11.93;;;7.60;;
68690;SDS011;55675;49.588;8.640;2022-11-20T05:15:08;13.47;;;7.83;;
68690;SDS011;55675;49.588;8.640;2022-11-20T05:17:34;12.47;;;8.07;;
68690;SDS011;55675;49.588;8.640;2022-11-20T05:19:59;13.37;;;7.87;;
68690;SDS011;55675;49.588;8.640;2022-11-20T05:22:25;11.50;;;7.33;;
68690;SDS011;55675;49.588;8.640;2022-11-20T05:24:50;10.70;;;7.57;;
68690;SDS011;55675;49.588;8.640;2022-11-20T05:27:16;11.57;;;7.77;;
68690;SDS011;55675;49.588;8.640;2022-11-20T05:29:41;12.53;;;7.70;;
68690;SDS011;55675;49.588;8.640;2022-11-20T05:32:07;10.43;;;6.97;;
68690;SDS011;55675;49.588;8.640;2022-11-20T05:34:34;10.77;;;8.10;;
68690;SDS011;55675;49.588;8.640;2022-11-20T05:37:00;13.40;;;8.37;;
68690;SDS011;55675;49.588;8.640;2022-11-20T05:39:26;12.33;;;8.17;;
68690;SDS011;55675;49.588;8.640;2022-11-20T05:41:51;13.97;;;8.83;;
68690;SDS011;55675;49.588;8.640;2022-11-20T05:44:37;12.70;;;8.03;;
68690;SDS011;55675;49.588;8.640;2022-11-20T05:47:02;12.27;;;7.73;;
68690;SDS011;55675;49.588;8.640;2022-11-20T05:49:28;14.40;;;8.60;;
68690;SDS011;55675;49.588;8.640;2022-11-20T05:51:53;12.03;;;7.20;;
68690;SDS011;55675;49.588;8.640;2022-11-20T05:54:19;13.23;;;8.27;;
68690;SDS011;55675;49.588;8.640;2022-11-20T05:56:44;12.13;;;7.63;;
68690;SDS011;55675;49.588;8.640;2022-11-20T05:59:10;11.27;;;7.70;;
68690;SDS011;55675;49.588;8.640;2022-11-20T06:01:35;13.90;;;8.67;;
68690;SDS011;55675;49.588;8.640;2022-11-20T06:04:01;14.40;;;7.70;;
68690;SDS011;55675;49.588;8.640;2022-11-20T06:06:26;15.40;;;8.90;;
68690;SDS011;55675;49.588;8.640;2022-11-20T06:08:52;14.20;;;8.87;;
68690;SDS011;55675;49.588;8.640;2022-11-20T06:11:18;13.77;;;8.23;;
68690;SDS011;55675;49.588;8.640;2022-11-20T06:13:44;12.63;;;8.27;;
68690;SDS011;55675;49.588;8.640;2022-11-20T06:16:11;12.23;;;8.33;;
68690;SDS011;55675;49.588;8.640;2022-11-20T06:18:38;13.53;;;8.60;;
68690;SDS011;55675;49.588;8.640;2022-11-20T06:21:14;13.03;;;8.20;;
68690;SDS011;55675;49.588;8.640;2022-11-20T06:23:42;14.43;;;8.87;;
68690;SDS011;55675;49.588;8.640;2022-11-20T06:26:08;12.77;;;8.20;;
68690;SDS011;55675;49.588;8.640;2022-11-20T06:28:39;12.53;;;8.47;;
68690;SDS011;55675;49.588;8.640;2022-11-20T06:31:05;12.80;;;8.30;;
68690;SDS011;55675;49.588;8.640;2022-11-20T06:33:31;16.47;;;8.73;;
68690;SDS011;55675;49.588;8.640;2022-11-20T06:35:58;13.90;;;8.10;;
68690;SDS011;55675;49.588;8.640;2022-11-20T06:38:24;15.27;;;9.40;;
68690;SDS011;55675;49.588;8.640;2022-11-20T06:40:51;13.97;;;8.93;;
68690;SDS011;55675;49.588;8.640;2022-11-20T06:43:16;12.80;;;8.07;;
68690;SDS011;55675;49.588;8.640;2022-11-20T06:45:42;12.63;;;8.43;;
68690;SDS011;55675;49.588;8.640;2022-11-20T06:48:07;13.67;;;8.17;;
68690;SDS011;55675;49.588;8.640;2022-11-20T06:50:34;14.03;;;8.40;;
68690;SDS011;55675;49.588;8.640;2022-11-20T06:53:01;14.23;;;8.80;;
68690;SDS011;55675;49.588;8.640;2022-11-20T06:55:28;13.13;;;8.50;;
68690;SDS011;55675;49.588;8.640;2022-11-20T06:57:53;13.37;;;8.30;;
68690;SDS011;55675;49.588;8.640;2022-11-20T07:00:19;14.57;;;8.60;;
68690;SDS011;55675;49.588;8.640;2022-11-20T07:02:44;12.77;;;8.67;;
68690;SDS011;55675;49.588;8.640;2022-11-20T07:05:10;16.00;;;8.37;;
68690;SDS011;55675;49.588;8.640;2022-11-20T07:07:35;15.63;;;9.00;;
68690;SDS011;55675;49.588;8.640;2022-11-20T07:10:01;13.87;;;8.23;;
68690;SDS011;55675;49.588;8.640;2022-11-20T07:12:27;13.77;;;8.90;;
68690;SDS011;55675;49.588;8.640;2022-11-20T07:14:52;14.67;;;8.37;;
68690;SDS011;55675;49.588;8.640;2022-11-20T07:17:17;13.90;;;8.97;;
68690;SDS011;55675;49.588;8.640;2022-11-20T07:19:43;14.43;;;8.63;;
68690;SDS011;55675;49.588;8.640;2022-11-20T07:22:09;16.83;;;9.47;;
68690;SDS011;55675;49.588;8.640;2022-11-20T07:24:34;14.97;;;8.60;;
68690;SDS011;55675;49.588;8.640;2022-11-20T07:27:00;13.63;;;8.87;;
68690;SDS011;55675;49.588;8.640;2022-11-20T07:29:25;19.03;;;9.70;;
68690;SDS011;55675;49.588;8.640;2022-11-20T07:31:51;16.83;;;9.90;;
68690;SDS011;55675;49.588;8.640;2022-11-20T07:34:16;15.67;;;9.77;;
68690;SDS011;55675;49.588;8.640;2022-11-20T07:36:42;16.63;;;9.70;;
68690;SDS011;55675;49.588;8.640;2022-11-20T07:39:07;17.10;;;10.43;;
68690;SDS011;55675;49.588;8.640;2022-11-20T07:41:33;15.30;;;9.63;;
68690;SDS011;55675;49.588;8.640;2022-11-20T07:43:58;17.30;;;10.07;;
68690;SDS011;55675;49.588;8.640;2022-11-20T07:46:24;15.80;;;10.73;;
68690;SDS011;55675;49.588;8.640;2022-11-20T07:48:49;17.97;;;10.93;;
68690;SDS011;55675;49.588;8.640;2022-11-20T07:51:15;15.40;;;9.23;;
68690;SDS011;55675;49.588;8.640;2022-11-20T07:53:40;14.77;;;9.53;;
68690;SDS011;55675;49.588;8.640;2022-11-20T07:56:06;15.40;;;9.77;;
68690;SDS011;55675;49.588;8.640;2022-11-20T07:58:32;16.23;;;9.57;;
68690;SDS011;55675;49.588;8.640;2022-11-20T08:01:04;14.77;;;9.00;;
68690;SDS011;55675;49.588;8.640;2022-11-20T08:03:31;14.73;;;9.07;;
68690;SDS011;55675;49.588;8.640;2022-11-20T08:06:00;12.40;;;8.50;;
68690;SDS011;55675;49.588;8.640;2022-11-20T08:08:26;13.67;;;8.40;;
68690;SDS011;55675;49.588;8.640;2022-11-20T08:10:52;15.67;;;9.03;;
68690;SDS011;55675;49.588;8.640;2022-11-20T08:13:38;13.57;;;8.73;;
68690;SDS011;55675;49.588;8.640;2022-11-20T08:16:22;16.50;;;9.47;;
68690;SDS011;55675;49.588;8.640;2022-11-20T08:18:47;15.63;;;9.47;;
68690;SDS011;55675;49.588;8.640;2022-11-20T08:21:13;16.10;;;8.53;;
68690;SDS011;55675;49.588;8.640;2022-11-20T08:23:38;14.60;;;8.97;;
68690;SDS011;55675;49.588;8.640;2022-11-20T08:26:04;17.70;;;9.40;;
68690;SDS011;55675;49.588;8.640;2022-11-20T08:28:29;13.97;;;9.03;;
68690;SDS011;55675;49.588;8.640;2022-11-20T08:31:01;17.67;;;9.87;;
68690;SDS011;55675;49.588;8.640;2022-11-20T08:33:28;17.27;;;10.53;;
68690;SDS011;55675;49.588;8.640;2022-11-20T08:35:58;17.87;;;10.70;;
68690;SDS011;55675;49.588;8.640;2022-11-20T08:38:27;20.33;;;10.87;;
68690;SDS011;55675;49.588;8.640;2022-11-20T08:40:56;19.00;;;11.33;;
68690;SDS011;55675;49.588;8.640;2022-11-20T08:43:41;21.23;;;11.63;;
68690;SDS011;55675;49.588;8.640;2022-11-20T08:46:06;22.03;;;12.13;;
68690;SDS011;55675;49.588;8.640;2022-11-20T08:48:32;22.00;;;12.57;;
68690;SDS011;55675;49.588;8.640;2022-11-20T08:50:58;20.57;;;11.33;;
68690;SDS011;55675;49.588;8.640;2022-11-20T08:53:24;18.87;;;10.53;;
68690;SDS011;55675;49.588;8.640;2022-11-20T08:55:50;20.67;;;11.87;;
68690;SDS011;55675;49.588;8.640;2022-11-20T08:58:15;21.17;;;12.47;;
68690;SDS011;55675;49.588;8.640;2022-11-20T09:00:41;19.77;;;11.53;;
68690;SDS011;55675;49.588;8.640;2022-11-20T09:03:06;20.80;;;11.70;;
68690;SDS011;55675;49.588;8.640;2022-11-20T09:05:32;18.27;;;10.83;;
68690;SDS011;55675;49.588;8.640;2022-11-20T09:07:57;19.63;;;10.97;;
68690;SDS011;55675;49.588;8.640;2022-11-20T09:10:24;19.73;;;11.10;;
68690;SDS011;55675;49.588;8.640;2022-11-20T09:12:50;21.07;;;11.27;;
68690;SDS011;55675;49.588;8.640;2022-11-20T09:15:16;20.37;;;11.70;;
68690;SDS011;55675;49.588;8.640;2022-11-20T09:17:42;18.63;;;11.13;;
68690;SDS011;55675;49.588;8.640;2022-11-20T09:20:15;21.03;;;12.43;;
68690;SDS011;55675;49.588;8.640;2022-11-20T09:22:41;21.10;;;12.33;;
68690;SDS011;55675;49.588;8.640;2022-11-20T09:25:06;23.10;;;12.60;;
68690;SDS011;55675;49.588;8.640;2022-11-20T09:27:32;21.57;;;11.87;;
68690;SDS011;55675;49.588;8.640;2022-11-20T09:29:58;18.23;;;11.37;;
68690;SDS011;55675;49.588;8.640;2022-11-20T09:32:23;23.57;;;12.60;;
68690;SDS011;55675;49.588;8.640;2022-11-20T09:34:49;20.10;;;11.73;;
68690;SDS011;55675;49.588;8.640;2022-11-20T09:37:14;22.93;;;12.77;;
68690;SDS011;55675;49.588;8.640;2022-11-20T09:39:40;26.57;;;12.80;;
68690;SDS011;55675;49.588;8.640;2022-11-20T09:42:18;22.87;;;12.50;;
68690;SDS011;55675;49.588;8.640;2022-11-20T09:47:43;21.37;;;12.77;;
68690;SDS011;55675;49.588;8.640;2022-11-20T09:50:23;26.43;;;12.93;;
68690;SDS011;55675;49.588;8.640;2022-11-20T09:55:29;22.40;;;12.10;;
68690;SDS011;55675;49.588;8.640;2022-11-20T09:57:56;22.67;;;12.07;;
68690;SDS011;55675;49.588;8.640;2022-11-20T10:00:24;23.20;;;12.83;;
68690;SDS011;55675;49.588;8.640;2022-11-20T10:03:11;22.17;;;12.13;;
68690;SDS011;55675;49.588;8.640;2022-11-20T10:05:55;17.73;;;10.43;;
68690;SDS011;55675;49.588;8.640;2022-11-20T10:08:33;19.83;;;10.83;;
68690;SDS011;55675;49.588;8.640;2022-11-20T10:14:16;20.93;;;11.00;;
68690;SDS011;55675;49.588;8.640;2022-11-20T10:17:02;22.17;;;11.43;;
68690;SDS011;55675;49.588;8.640;2022-11-20T10:19:55;24.00;;;11.87;;
68690;SDS011;55675;49.588;8.640;2022-11-20T10:22:46;21.70;;;11.80;;
68690;SDS011;55675;49.588;8.640;2022-11-20T10:25:44;22.60;;;11.17;;
68690;SDS011;55675;49.588;8.640;2022-11-20T10:34:14;21.73;;;11.83;;
68690;SDS011;55675;49.588;8.640;2022-11-20T10:36:56;20.83;;;11.50;;
68690;SDS011;55675;49.588;8.640;2022-11-20T10:39:33;21.03;;;11.27;;
68690;SDS011;55675;49.588;8.640;2022-11-20T10:42:04;24.37;;;11.70;;
68690;SDS011;55675;49.588;8.640;2022-11-20T10:44:35;19.60;;;10.87;;
68690;SDS011;55675;49.588;8.640;2022-11-20T10:47:22;22.60;;;11.27;;
68690;SDS011;55675;49.588;8.640;2022-11-20T10:49:52;21.67;;;11.27;;
68690;SDS011;55675;49.588;8.640;2022-11-20T10:57:59;21.70;;;11.00;;
68690;SDS011;55675;49.588;8.640;2022-11-20T11:00:39;22.00;;;11.40;;
68690;SDS011;55675;49.588;8.640;2022-11-20T11:03:19;22.30;;;11.80;;
68690;SDS011;55675;49.588;8.640;2022-11-20T11:05:50;22.53;;;11.50;;
68690;SDS011;55675;49.588;8.640;2022-11-20T11:08:21;21.17;;;10.93;;
68690;SDS011;55675;49.588;8.640;2022-11-20T11:13:22;21.03;;;11.00;;
68690;SDS011;55675;49.588;8.640;2022-11-20T11:15:50;20.90;;;11.80;;
68690;SDS011;55675;49.588;8.640;2022-11-20T11:18:30;21.40;;;12.07;;
68690;SDS011;55675;49.588;8.640;2022-11-20T11:20:58;26.83;;;15.47;;
68690;SDS011;55675;49.588;8.640;2022-11-20T11:23:30;24.60;;;14.77;;
68690;SDS011;55675;49.588;8.640;2022-11-20T11:26:01;22.60;;;12.97;;
68690;SDS011;55675;49.588;8.640;2022-11-20T11:28:29;21.10;;;12.47;;
68690;SDS011;55675;49.588;8.640;2022-11-20T11:30:55;22.03;;;11.93;;
68690;SDS011;55675;49.588;8.640;2022-11-20T11:33:22;21.50;;;11.53;;
68690;SDS011;55675;49.588;8.640;2022-11-20T11:35:59;19.93;;;12.27;;
68690;SDS011;55675;49.588;8.640;2022-11-20T11:38:37;22.00;;;12.10;;
68690;SDS011;55675;49.588;8.640;2022-11-20T11:41:06;22.73;;;11.53;;
68690;SDS011;55675;49.588;8.640;2022-11-20T11:43:34;18.83;;;11.83;;
68690;SDS011;55675;49.588;8.640;2022-11-20T12:05:14;17.43;;;11.63;;
68690;SDS011;55675;49.588;8.640;2022-11-20T12:07:47;20.60;;;12.07;;
68690;SDS011;55675;49.588;8.640;2022-11-20T12:13:15;19.17;;;11.77;;
68690;SDS011;55675;49.588;8.640;2022-11-20T12:16:01;18.70;;;10.77;;
68690;SDS011;55675;49.588;8.640;2022-11-20T12:18:29;19.93;;;11.77;;
68690;SDS011;55675;49.588;8.640;2022-11-20T12:32:34;17.07;;;10.07;;
68690;SDS011;55675;49.588;8.640;2022-11-20T12:40:17;16.73;;;10.20;;
68690;SDS011;55675;49.588;8.640;2022-11-20T12:46:03;17.83;;;10.60;;
68690;SDS011;55675;49.588;8.640;2022-11-20T12:48:36;17.17;;;11.17;;
68690;SDS011;55675;49.588;8.640;2022-11-20T13:02:05;19.17;;;11.77;;
68690;SDS011;55675;49.588;8.640;2022-11-20T13:04:59;20.30;;;11.20;;
68690;SDS011;55675;49.588;8.640;2022-11-20T13:07:41;17.47;;;11.27;;
68690;SDS011;55675;49.588;8.640;2022-11-20T13:10:18;18.57;;;11.27;;
68690;SDS011;55675;49.588;8.640;2022-11-20T13:12:46;18.07;;;11.03;;
68690;SDS011;55675;49.588;8.640;2022-11-20T13:17:57;18.80;;;11.07;;
68690;SDS011;55675;49.588;8.640;2022-11-20T13:20:25;18.40;;;11.53;;
68690;SDS011;55675;49.588;8.640;2022-11-20T13:22:52;19.70;;;12.30;;
68690;SDS011;55675;49.588;8.640;2022-11-20T13:25:28;19.50;;;11.50;;
68690;SDS011;55675;49.588;8.640;2022-11-20T13:28:01;21.33;;;13.00;;
68690;SDS011;55675;49.588;8.640;2022-11-20T13:30:30;23.57;;;13.87;;
68690;SDS011;55675;49.588;8.640;2022-11-20T13:38:14;21.53;;;13.37;;
68690;SDS011;55675;49.588;8.640;2022-11-20T13:40:53;20.97;;;12.87;;
68690;SDS011;55675;49.588;8.640;2022-11-20T13:43:42;18.83;;;12.37;;
68690;SDS011;55675;49.588;8.640;2022-11-20T13:46:09;17.77;;;12.13;;
68690;SDS011;55675;49.588;8.640;2022-11-20T13:48:38;18.20;;;11.50;;
68690;SDS011;55675;49.588;8.640;2022-11-20T13:56:54;15.20;;;10.43;;
68690;SDS011;55675;49.588;8.640;2022-11-20T14:02:11;16.27;;;11.13;;
68690;SDS011;55675;49.588;8.640;2022-11-20T14:04:41;15.13;;;10.50;;
68690;SDS011;55675;49.588;8.640;2022-11-20T14:07:09;15.63;;;10.27;;
68690;SDS011;55675;49.588;8.640;2022-11-20T14:09:36;15.50;;;11.27;;
68690;SDS011;55675;49.588;8.640;2022-11-20T14:12:02;13.37;;;9.93;;
68690;SDS011;55675;49.588;8.640;2022-11-20T14:14:29;15.27;;;9.73;;
68690;SDS011;55675;49.588;8.640;2022-11-20T14:17:09;14.50;;;9.77;;
68690;SDS011;55675;49.588;8.640;2022-11-20T14:19:45;13.17;;;9.57;;
68690;SDS011;55675;49.588;8.640;2022-11-20T14:22:23;13.33;;;9.33;;
68690;SDS011;55675;49.588;8.640;2022-11-20T14:27:37;12.40;;;9.33;;
68690;SDS011;55675;49.588;8.640;2022-11-20T14:30:05;14.90;;;9.80;;
68690;SDS011;55675;49.588;8.640;2022-11-20T14:32:42;12.03;;;9.17;;
68690;SDS011;55675;49.588;8.640;2022-11-20T14:35:10;13.43;;;9.77;;
68690;SDS011;55675;49.588;8.640;2022-11-20T14:37:40;14.30;;;9.20;;
68690;SDS011;55675;49.588;8.640;2022-11-20T14:40:22;14.47;;;9.10;;
68690;SDS011;55675;49.588;8.640;2022-11-20T14:42:49;13.83;;;9.10;;
68690;SDS011;55675;49.588;8.640;2022-11-20T14:45:15;13.87;;;9.50;;
68690;SDS011;55675;49.588;8.640;2022-11-20T14:47:41;12.70;;;9.03;;
68690;SDS011;55675;49.588;8.640;2022-11-20T14:50:12;13.17;;;9.30;;
68690;SDS011;55675;49.588;8.640;2022-11-20T14:52:49;12.20;;;8.50;;
68690;SDS011;55675;49.588;8.640;2022-11-20T14:55:32;11.77;;;8.10;;
68690;SDS011;55675;49.588;8.640;2022-11-20T14:58:21;11.23;;;8.30;;
68690;SDS011;55675;49.588;8.640;2022-11-20T15:00:54;12.83;;;8.77;;
68690;SDS011;55675;49.588;8.640;2022-11-20T15:03:20;10.63;;;8.27;;
68690;SDS011;55675;49.588;8.640;2022-11-20T15:05:46;14.53;;;8.13;;
68690;SDS011;55675;49.588;8.640;2022-11-20T15:08:13;12.13;;;7.67;;
68690;SDS011;55675;49.588;8.640;2022-11-20T15:10:47;13.33;;;7.00;;
68690;SDS011;55675;49.588;8.640;2022-11-20T15:16:02;6.83;;;2.73;;
68690;SDS011;55675;49.588;8.640;2022-11-20T15:18:36;2.50;;;1.50;;
68690;SDS011;55675;49.588;8.640;2022-11-20T15:21:10;2.33;;;1.30;;
68690;SDS011;55675;49.588;8.640;2022-11-20T15:23:37;1.17;;;1.07;;
68690;SDS011;55675;49.588;8.640;2022-11-20T15:26:10;3.00;;;1.40;;
68690;SDS011;55675;49.588;8.640;2022-11-20T15:28:38;1.23;;;1.07;;
68690;SDS011;55675;49.588;8.640;2022-11-20T15:31:06;1.30;;;1.20;;
68690;SDS011;55675;49.588;8.640;2022-11-20T15:33:32;1.50;;;1.13;;
68690;SDS011;55675;49.588;8.640;2022-11-20T15:35:58;3.40;;;1.00;;
68690;SDS011;55675;49.588;8.640;2022-11-20T15:38:24;3.73;;;1.10;;
68690;SDS011;55675;49.588;8.640;2022-11-20T15:40:50;3.83;;;1.30;;
68690;SDS011;55675;49.588;8.640;2022-11-20T15:43:15;5.83;;;1.20;;
68690;SDS011;55675;49.588;8.640;2022-11-20T15:45:42;2.07;;;0.77;;
68690;SDS011;55675;49.588;8.640;2022-11-20T15:48:15;2.57;;;1.10;;
68690;SDS011;55675;49.588;8.640;2022-11-20T15:51:01;1.57;;;1.27;;
68690;SDS011;55675;49.588;8.640;2022-11-20T15:53:28;2.57;;;1.13;;
68690;SDS011;55675;49.588;8.640;2022-11-20T15:55:53;1.63;;;1.23;;
68690;SDS011;55675;49.588;8.640;2022-11-20T15:58:19;1.47;;;1.30;;
68690;SDS011;55675;49.588;8.640;2022-11-20T16:00:44;3.10;;;1.50;;
68690;SDS011;55675;49.588;8.640;2022-11-20T16:03:11;3.43;;;1.40;;
68690;SDS011;55675;49.588;8.640;2022-11-20T16:05:37;4.20;;;1.73;;
68690;SDS011;55675;49.588;8.640;2022-11-20T16:08:03;2.80;;;1.73;;
68690;SDS011;55675;49.588;8.640;2022-11-20T16:10:29;5.23;;;1.30;;
68690;SDS011;55675;49.588;8.640;2022-11-20T16:12:54;2.00;;;1.57;;
68690;SDS011;55675;49.588;8.640;2022-11-20T16:15:38;2.97;;;1.57;;
68690;SDS011;55675;49.588;8.640;2022-11-20T16:18:10;11.87;;;6.90;;
68690;SDS011;55675;49.588;8.640;2022-11-20T16:20:37;26.57;;;17.13;;
68690;SDS011;55675;49.588;8.640;2022-11-20T16:23:03;23.27;;;15.77;;